createdAt,value
2017-08-21T00:00:37.023Z,1016.91
2017-08-21T00:01:37.002Z,1016.88
2017-08-21T00:02:36.976Z,1016.87
2017-08-21T00:03:36.969Z,1016.91
2017-08-21T00:04:36.940Z,1016.89
2017-08-21T00:05:36.915Z,1016.86
2017-08-21T00:06:36.898Z,1016.89
2017-08-21T00:07:36.875Z,1016.90
2017-08-21T00:08:36.851Z,1016.86
2017-08-21T00:09:36.833Z,1016.91
2017-08-21T00:10:36.813Z,1016.88
2017-08-21T00:11:36.795Z,1016.85
2017-08-21T00:12:36.769Z,1016.89
2017-08-21T00:13:36.748Z,1016.90
2017-08-21T00:14:36.732Z,1016.92
2017-08-21T00:15:36.710Z,1016.91
2017-08-21T00:16:36.690Z,1016.88
2017-08-21T00:17:36.666Z,1016.88
2017-08-21T00:18:36.647Z,1016.95
2017-08-21T00:19:36.627Z,1016.95
2017-08-21T00:20:36.607Z,1016.91
2017-08-21T00:21:36.581Z,1016.97
2017-08-21T00:22:36.562Z,1017.02
2017-08-21T00:23:36.543Z,1017.00
2017-08-21T00:24:36.524Z,1017.02
2017-08-21T00:25:36.499Z,1017.01
2017-08-21T00:26:36.480Z,1017.04
2017-08-21T00:27:36.460Z,1017.00
2017-08-21T00:28:36.441Z,1017.04
2017-08-21T00:29:36.420Z,1017.03
2017-08-21T00:30:36.400Z,1017.00
2017-08-21T00:31:36.378Z,1016.94
2017-08-21T00:32:36.358Z,1017.03
2017-08-21T00:33:36.332Z,1016.97
2017-08-21T00:34:36.312Z,1017.00
2017-08-21T00:35:36.296Z,1017.03
2017-08-21T00:36:36.272Z,1017.02
2017-08-21T00:37:36.253Z,1016.99
2017-08-21T00:38:36.232Z,1017.01
2017-08-21T00:39:36.207Z,1016.97
2017-08-21T00:40:36.188Z,1016.99
2017-08-21T00:41:36.166Z,1016.98
2017-08-21T00:42:36.149Z,1017.02
2017-08-21T00:43:36.125Z,1017.01
2017-08-21T00:44:36.107Z,1017.03
2017-08-21T00:45:36.093Z,1017.05
2017-08-21T00:46:36.067Z,1017.09
2017-08-21T00:47:36.044Z,1017.06
2017-08-21T00:48:36.025Z,1017.10
2017-08-21T00:49:36.000Z,1017.05
2017-08-21T00:50:35.982Z,1017.07
2017-08-21T00:51:35.962Z,1017.06
2017-08-21T00:52:35.942Z,1017.06
2017-08-21T00:53:35.917Z,1017.03
2017-08-21T00:54:35.897Z,1017.07
2017-08-21T00:55:35.880Z,1017.04
2017-08-21T00:56:35.854Z,1017.07
2017-08-21T00:57:35.837Z,1017.08
2017-08-21T00:58:35.812Z,1017.04
2017-08-21T00:59:35.791Z,1017.04
2017-08-21T01:00:35.776Z,1017.10
2017-08-21T01:01:35.753Z,1017.10
2017-08-21T01:02:35.733Z,1017.03
2017-08-21T01:03:35.712Z,1017.03
2017-08-21T01:04:35.692Z,1017.04
2017-08-21T01:05:35.670Z,1017.07
2017-08-21T01:06:35.652Z,1017.04
2017-08-21T01:07:35.626Z,1017.02
2017-08-21T01:08:35.605Z,1017.05
2017-08-21T01:09:35.587Z,1017.03
2017-08-21T01:10:35.565Z,1017.01
2017-08-21T01:11:35.545Z,1017.01
2017-08-21T01:12:35.529Z,1017.00
2017-08-21T01:13:35.503Z,1017.01
2017-08-21T01:14:35.481Z,1017.02
2017-08-21T01:15:35.459Z,1017.00
2017-08-21T01:16:35.443Z,1017.02
2017-08-21T01:17:35.419Z,1017.02
2017-08-21T01:18:35.398Z,1017.01
2017-08-21T01:19:35.379Z,1017.03
2017-08-21T01:20:35.356Z,1016.96
2017-08-21T01:21:35.336Z,1017.01
2017-08-21T01:22:35.332Z,1016.98
2017-08-21T01:23:35.294Z,1017.02
2017-08-21T01:24:35.273Z,1017.00
2017-08-21T01:25:35.251Z,1017.02
2017-08-21T01:26:35.231Z,1017.00
2017-08-21T01:27:35.211Z,1017.00
2017-08-21T01:28:35.193Z,1017.04
2017-08-21T01:29:35.173Z,1017.00
2017-08-21T01:30:35.148Z,1017.03
2017-08-21T01:31:35.130Z,1017.00
2017-08-21T01:32:35.106Z,1017.05
2017-08-21T01:33:35.094Z,1017.02
2017-08-21T01:34:35.065Z,1017.00
2017-08-21T01:35:35.047Z,1016.99
2017-08-21T01:36:35.022Z,1016.98
2017-08-21T01:37:35.004Z,1017.00
2017-08-21T01:38:34.986Z,1016.98
2017-08-21T01:39:34.961Z,1016.99
2017-08-21T01:40:34.939Z,1016.96
2017-08-21T01:41:34.922Z,1016.96
2017-08-21T01:42:34.901Z,1016.95
2017-08-21T01:43:34.877Z,1016.94
2017-08-21T01:44:34.857Z,1016.93
2017-08-21T01:45:34.839Z,1016.96
2017-08-21T01:46:34.823Z,1016.94
2017-08-21T01:47:34.794Z,1016.92
2017-08-21T01:48:34.777Z,1016.95
2017-08-21T01:49:34.754Z,1016.91
2017-08-21T01:50:34.731Z,1016.96
2017-08-21T01:51:34.713Z,1016.92
2017-08-21T01:52:34.691Z,1016.88
2017-08-21T01:53:34.670Z,1016.84
2017-08-21T01:54:34.652Z,1016.88
2017-08-21T01:55:34.629Z,1016.85
2017-08-21T01:56:34.611Z,1016.86
2017-08-21T01:57:34.590Z,1016.87
2017-08-21T01:58:34.570Z,1016.86
2017-08-21T01:59:34.546Z,1016.88
2017-08-21T02:00:34.527Z,1016.84
2017-08-21T02:01:34.505Z,1016.87
2017-08-21T02:02:34.481Z,1016.83
2017-08-21T02:03:34.469Z,1016.84
2017-08-21T02:04:34.444Z,1016.84
2017-08-21T02:05:34.424Z,1016.81
2017-08-21T02:06:34.404Z,1016.83
2017-08-21T02:07:34.379Z,1016.80
2017-08-21T02:08:34.375Z,1016.83
2017-08-21T02:09:34.336Z,1016.80
2017-08-21T02:10:34.317Z,1016.83
2017-08-21T02:11:34.295Z,1016.84
2017-08-21T02:12:34.277Z,1016.83
2017-08-21T02:13:34.255Z,1016.82
2017-08-21T02:14:34.230Z,1016.81
2017-08-21T02:15:34.210Z,1016.89
2017-08-21T02:16:34.192Z,1016.78
2017-08-21T02:17:34.173Z,1016.79
2017-08-21T02:18:34.153Z,1016.78
2017-08-21T02:19:34.131Z,1016.75
2017-08-21T02:20:34.108Z,1016.77
2017-08-21T02:21:34.086Z,1016.82
2017-08-21T02:22:34.064Z,1016.77
2017-08-21T02:23:34.048Z,1016.77
2017-08-21T02:24:34.028Z,1016.79
2017-08-21T02:25:34.006Z,1016.73
2017-08-21T02:26:33.986Z,1016.79
2017-08-21T02:27:33.964Z,1016.75
2017-08-21T02:28:33.944Z,1016.73
2017-08-21T02:29:33.922Z,1016.79
2017-08-21T02:30:33.900Z,1016.77
2017-08-21T02:31:33.879Z,1016.76
2017-08-21T02:32:33.858Z,1016.73
2017-08-21T02:33:33.834Z,1016.75
2017-08-21T02:34:33.819Z,1016.75
2017-08-21T02:35:33.793Z,1016.76
2017-08-21T02:36:33.776Z,1016.79
2017-08-21T02:37:33.756Z,1016.83
2017-08-21T02:38:33.732Z,1016.85
2017-08-21T02:39:33.711Z,1016.84
2017-08-21T02:40:33.694Z,1016.87
2017-08-21T02:41:33.673Z,1016.85
2017-08-21T02:42:33.650Z,1016.87
2017-08-21T02:43:33.630Z,1016.83
2017-08-21T02:44:33.606Z,1016.85
2017-08-21T02:45:33.587Z,1016.82
2017-08-21T02:46:33.569Z,1016.79
2017-08-21T02:47:33.543Z,1016.86
2017-08-21T02:48:33.527Z,1016.85
2017-08-21T02:49:33.507Z,1016.86
2017-08-21T02:50:33.483Z,1016.82
2017-08-21T02:51:33.462Z,1016.86
2017-08-21T02:52:33.442Z,1016.87
2017-08-21T02:53:33.421Z,1016.84
2017-08-21T02:54:33.399Z,1016.88
2017-08-21T02:55:33.378Z,1016.87
2017-08-21T02:56:33.358Z,1016.87
2017-08-21T02:57:33.338Z,1016.87
2017-08-21T02:58:33.315Z,1016.86
2017-08-21T02:59:33.295Z,1016.87
2017-08-21T03:00:33.275Z,1016.92
2017-08-21T03:01:33.256Z,1016.88
2017-08-21T03:02:33.234Z,1016.84
2017-08-21T03:03:33.210Z,1016.86
2017-08-21T03:04:33.187Z,1016.88
2017-08-21T03:05:33.172Z,1016.87
2017-08-21T03:06:33.149Z,1016.90
2017-08-21T03:07:33.128Z,1016.91
2017-08-21T03:08:33.108Z,1016.95
2017-08-21T03:09:33.086Z,1016.92
2017-08-21T03:10:33.067Z,1016.88
2017-08-21T03:11:33.046Z,1016.91
2017-08-21T03:12:33.026Z,1016.94
2017-08-21T03:13:33.003Z,1016.89
2017-08-21T03:14:32.980Z,1016.91
2017-08-21T03:15:32.958Z,1016.92
2017-08-21T03:16:32.943Z,1016.85
2017-08-21T03:17:32.917Z,1016.90
2017-08-21T03:18:32.898Z,1016.93
2017-08-21T03:19:32.876Z,1016.92
2017-08-21T03:20:32.860Z,1016.90
2017-08-21T03:21:32.838Z,1016.81
2017-08-21T03:22:32.815Z,1016.88
2017-08-21T03:23:32.795Z,1016.86
2017-08-21T03:24:32.775Z,1016.86
2017-08-21T03:25:32.750Z,1016.85
2017-08-21T03:26:32.729Z,1016.82
2017-08-21T03:27:32.710Z,1016.82
2017-08-21T03:28:32.705Z,1016.78
2017-08-21T03:29:32.668Z,1016.81
2017-08-21T03:30:32.646Z,1016.86
2017-08-21T03:31:32.628Z,1016.86
2017-08-21T03:32:32.608Z,1016.75
2017-08-21T03:33:32.585Z,1016.81
2017-08-21T03:34:32.564Z,1016.75
2017-08-21T03:35:32.540Z,1016.79
2017-08-21T03:36:32.522Z,1016.76
2017-08-21T03:37:32.503Z,1016.81
2017-08-21T03:38:32.478Z,1016.77
2017-08-21T03:39:32.458Z,1016.78
2017-08-21T03:40:32.434Z,1016.80
2017-08-21T03:41:32.413Z,1016.83
2017-08-21T03:42:32.397Z,1016.82
2017-08-21T03:43:32.372Z,1016.88
2017-08-21T03:44:32.351Z,1016.86
2017-08-21T03:45:32.329Z,1016.82
2017-08-21T03:46:32.307Z,1016.81
2017-08-21T03:47:32.284Z,1016.84
2017-08-21T03:48:32.267Z,1016.81
2017-08-21T03:49:32.241Z,1016.77
2017-08-21T03:50:32.220Z,1016.79
2017-08-21T03:51:32.200Z,1016.76
2017-08-21T03:52:32.176Z,1016.86
2017-08-21T03:53:32.159Z,1016.79
2017-08-21T03:54:32.138Z,1016.81
2017-08-21T03:55:32.117Z,1016.79
2017-08-21T03:56:32.090Z,1016.82
2017-08-21T03:57:32.072Z,1016.77
2017-08-21T03:58:32.049Z,1016.73
2017-08-21T03:59:32.026Z,1016.79
2017-08-21T04:00:32.009Z,1016.79
2017-08-21T04:01:31.988Z,1016.78
2017-08-21T04:02:31.963Z,1016.79
2017-08-21T04:03:31.940Z,1016.79
2017-08-21T04:04:31.919Z,1016.85
2017-08-21T04:05:31.900Z,1016.80
2017-08-21T04:06:31.876Z,1016.81
2017-08-21T04:07:31.854Z,1016.81
2017-08-21T04:08:31.835Z,1016.84
2017-08-21T04:09:31.814Z,1016.84
2017-08-21T04:10:31.796Z,1016.84
2017-08-21T04:11:31.774Z,1016.86
2017-08-21T04:12:31.750Z,1016.85
2017-08-21T04:13:31.728Z,1016.85
2017-08-21T04:14:31.709Z,1016.90
2017-08-21T04:15:31.686Z,1016.88
2017-08-21T04:16:31.665Z,1016.88
2017-08-21T04:17:31.643Z,1016.86
2017-08-21T04:18:31.623Z,1016.87
2017-08-21T04:19:31.601Z,1016.89
2017-08-21T04:20:31.581Z,1016.87
2017-08-21T04:21:31.562Z,1016.90
2017-08-21T04:22:31.539Z,1016.94
2017-08-21T04:23:31.516Z,1016.89
2017-08-21T04:24:31.493Z,1016.85
2017-08-21T04:25:31.473Z,1016.92
2017-08-21T04:26:31.457Z,1016.87
2017-08-21T04:27:31.435Z,1016.89
2017-08-21T04:28:31.410Z,1016.89
2017-08-21T04:29:31.393Z,1016.84
2017-08-21T04:30:31.371Z,1016.94
2017-08-21T04:31:31.344Z,1016.91
2017-08-21T04:32:31.326Z,1016.94
2017-08-21T04:33:31.306Z,1016.92
2017-08-21T04:34:31.282Z,1016.93
2017-08-21T04:35:31.262Z,1016.95
2017-08-21T04:36:31.242Z,1016.99
2017-08-21T04:37:31.220Z,1017.00
2017-08-21T04:38:31.201Z,1017.01
2017-08-21T04:39:31.180Z,1016.96
2017-08-21T04:40:31.159Z,1017.08
2017-08-21T04:41:31.133Z,1016.99
2017-08-21T04:42:31.114Z,1017.01
2017-08-21T04:43:31.096Z,1017.03
2017-08-21T04:44:31.075Z,1017.06
2017-08-21T04:45:31.052Z,1017.01
2017-08-21T04:46:31.029Z,1017.04
2017-08-21T04:47:31.008Z,1017.00
2017-08-21T04:48:30.989Z,1017.06
2017-08-21T04:49:30.971Z,1017.05
2017-08-21T04:50:30.946Z,1017.04
2017-08-21T04:51:30.924Z,1017.03
2017-08-21T04:52:30.905Z,1016.98
2017-08-21T04:53:30.883Z,1017.00
2017-08-21T04:54:30.871Z,1017.03
2017-08-21T04:55:30.843Z,1017.06
2017-08-21T04:56:30.818Z,1017.02
2017-08-21T04:57:30.798Z,1017.03
2017-08-21T04:58:30.781Z,1017.00
2017-08-21T04:59:30.756Z,1017.00
2017-08-21T05:00:30.736Z,1017.04
2017-08-21T05:01:30.717Z,1017.04
2017-08-21T05:02:30.694Z,1017.05
2017-08-21T05:03:30.674Z,1017.09
2017-08-21T05:04:30.650Z,1017.12
2017-08-21T05:05:30.629Z,1017.07
2017-08-21T05:06:30.610Z,1017.03
2017-08-21T05:07:30.585Z,1017.06
2017-08-21T05:08:30.566Z,1017.05
2017-08-21T05:09:30.543Z,1017.05
2017-08-21T05:10:30.526Z,1017.01
2017-08-21T05:11:30.503Z,1017.11
2017-08-21T05:12:30.485Z,1017.02
2017-08-21T05:13:30.464Z,1017.01
2017-08-21T05:14:30.443Z,1016.97
2017-08-21T05:15:30.427Z,1017.02
2017-08-21T05:16:30.400Z,1016.99
2017-08-21T05:17:30.380Z,1017.01
2017-08-21T05:18:30.357Z,1017.01
2017-08-21T05:19:30.336Z,1017.00
2017-08-21T05:20:30.316Z,1016.99
2017-08-21T05:21:30.291Z,1016.99
2017-08-21T05:22:30.275Z,1017.03
2017-08-21T05:23:30.249Z,1016.99
2017-08-21T05:24:30.229Z,1016.97
2017-08-21T05:25:30.214Z,1016.98
2017-08-21T05:26:30.188Z,1017.04
2017-08-21T05:27:30.166Z,1017.00
2017-08-21T05:28:30.147Z,1017.05
2017-08-21T05:29:30.125Z,1017.06
2017-08-21T05:30:30.106Z,1017.03
2017-08-21T05:31:30.083Z,1017.02
2017-08-21T05:32:30.059Z,1017.04
2017-08-21T05:33:30.043Z,1017.08
2017-08-21T05:34:30.019Z,1017.08
2017-08-21T05:35:29.996Z,1017.08
2017-08-21T05:36:29.976Z,1017.10
2017-08-21T05:37:29.954Z,1017.11
2017-08-21T05:38:29.939Z,1017.08
2017-08-21T05:39:29.916Z,1017.08
2017-08-21T05:40:29.898Z,1017.13
2017-08-21T05:41:29.871Z,1017.11
2017-08-21T05:42:29.852Z,1017.12
2017-08-21T05:43:29.827Z,1017.17
2017-08-21T05:44:29.809Z,1017.16
2017-08-21T05:45:29.788Z,1017.15
2017-08-21T05:46:29.766Z,1017.16
2017-08-21T05:47:29.745Z,1017.17
2017-08-21T05:48:29.724Z,1017.20
2017-08-21T05:49:29.706Z,1017.17
2017-08-21T05:50:29.684Z,1017.27
2017-08-21T05:51:29.664Z,1017.25
2017-08-21T05:52:29.641Z,1017.25
2017-08-21T05:53:29.619Z,1017.25
2017-08-21T05:54:29.599Z,1017.24
2017-08-21T05:55:29.578Z,1017.27
2017-08-21T05:56:29.559Z,1017.27
2017-08-21T05:57:29.536Z,1017.30
2017-08-21T05:58:29.513Z,1017.30
2017-08-21T05:59:29.498Z,1017.29
2017-08-21T06:00:29.475Z,1017.28
2017-08-21T06:01:29.452Z,1017.29
2017-08-21T06:02:29.430Z,1017.27
2017-08-21T06:03:29.407Z,1017.35
2017-08-21T06:04:29.387Z,1017.34
2017-08-21T06:05:29.366Z,1017.33
2017-08-21T06:06:29.345Z,1017.31
2017-08-21T06:07:29.324Z,1017.33
2017-08-21T06:08:29.307Z,1017.33
2017-08-21T06:09:29.284Z,1017.38
2017-08-21T06:10:29.283Z,1017.32
2017-08-21T06:11:29.239Z,1017.41
2017-08-21T06:12:29.219Z,1017.34
2017-08-21T06:13:29.200Z,1017.29
2017-08-21T06:14:29.183Z,1017.34
2017-08-21T06:15:29.157Z,1017.30
2017-08-21T06:16:29.137Z,1017.24
2017-08-21T06:17:29.112Z,1017.31
2017-08-21T06:18:29.098Z,1017.33
2017-08-21T06:19:29.081Z,1017.30
2017-08-21T06:20:29.056Z,1017.30
2017-08-21T06:21:29.034Z,1017.35
2017-08-21T06:22:29.010Z,1017.31
2017-08-21T06:23:28.987Z,1017.37
2017-08-21T06:24:28.972Z,1017.27
2017-08-21T06:25:28.950Z,1017.27
2017-08-21T06:26:28.943Z,1017.32
2017-08-21T06:27:28.906Z,1017.26
2017-08-21T06:28:28.885Z,1017.31
2017-08-21T06:29:28.866Z,1017.36
2017-08-21T06:30:28.844Z,1017.38
2017-08-21T06:31:28.819Z,1017.36
2017-08-21T06:32:28.801Z,1017.35
2017-08-21T06:33:28.782Z,1017.37
2017-08-21T06:34:28.757Z,1017.36
2017-08-21T06:35:28.740Z,1017.40
2017-08-21T06:36:28.718Z,1017.37
2017-08-21T06:37:28.702Z,1017.40
2017-08-21T06:38:28.677Z,1017.37
2017-08-21T06:39:28.654Z,1017.36
2017-08-21T06:40:28.637Z,1017.38
2017-08-21T06:41:28.615Z,1017.43
2017-08-21T06:42:28.591Z,1017.40
2017-08-21T06:43:28.569Z,1017.40
2017-08-21T06:44:28.549Z,1017.42
2017-08-21T06:45:28.527Z,1017.42
2017-08-21T06:46:28.505Z,1017.45
2017-08-21T06:47:28.485Z,1017.43
2017-08-21T06:48:28.465Z,1017.42
2017-08-21T06:49:28.443Z,1017.40
2017-08-21T06:50:28.421Z,1017.41
2017-08-21T06:51:28.400Z,1017.43
2017-08-21T06:52:28.379Z,1017.41
2017-08-21T06:53:28.361Z,1017.38
2017-08-21T06:54:28.339Z,1017.42
2017-08-21T06:55:28.316Z,1017.39
2017-08-21T06:56:28.296Z,1017.41
2017-08-21T06:57:28.275Z,1017.44
2017-08-21T06:58:28.253Z,1017.42
2017-08-21T06:59:28.235Z,1017.45
2017-08-21T07:00:28.213Z,1017.39
2017-08-21T07:01:28.190Z,1017.38
2017-08-21T07:02:28.169Z,1017.35
2017-08-21T07:03:28.147Z,1017.43
2017-08-21T07:04:28.128Z,1017.42
2017-08-21T07:05:28.108Z,1017.43
2017-08-21T07:06:28.086Z,1017.42
2017-08-21T07:07:28.066Z,1017.41
2017-08-21T07:08:28.044Z,1017.38
2017-08-21T07:09:28.024Z,1017.42
2017-08-21T07:10:28.002Z,1017.42
2017-08-21T07:11:27.985Z,1017.37
2017-08-21T07:12:27.962Z,1017.45
2017-08-21T07:13:27.941Z,1017.40
2017-08-21T07:14:27.920Z,1017.42
2017-08-21T07:15:27.896Z,1017.43
2017-08-21T07:16:27.880Z,1017.44
2017-08-21T07:17:27.854Z,1017.45
2017-08-21T07:18:27.838Z,1017.44
2017-08-21T07:19:27.815Z,1017.49
2017-08-21T07:20:27.796Z,1017.46
2017-08-21T07:21:27.771Z,1017.46
2017-08-21T07:22:27.752Z,1017.47
2017-08-21T07:23:27.734Z,1017.46
2017-08-21T07:24:27.707Z,1017.45
2017-08-21T07:25:27.691Z,1017.44
2017-08-21T07:26:27.665Z,1017.51
2017-08-21T07:27:27.644Z,1017.50
2017-08-21T07:28:27.628Z,1017.49
2017-08-21T07:29:27.607Z,1017.51
2017-08-21T07:30:27.586Z,1017.49
2017-08-21T07:31:27.563Z,1017.50
2017-08-21T07:32:27.541Z,1017.51
2017-08-21T07:33:27.522Z,1017.53
2017-08-21T07:34:27.499Z,1017.53
2017-08-21T07:35:27.481Z,1017.51
2017-08-21T07:36:27.456Z,1017.52
2017-08-21T07:37:27.439Z,1017.49
2017-08-21T07:38:27.413Z,1017.47
2017-08-21T07:39:27.395Z,1017.46
2017-08-21T07:40:27.374Z,1017.50
2017-08-21T07:41:27.352Z,1017.48
2017-08-21T07:42:27.335Z,1017.56
2017-08-21T07:43:27.312Z,1017.56
2017-08-21T07:44:27.290Z,1017.54
2017-08-21T07:45:27.272Z,1017.56
2017-08-21T07:46:27.247Z,1017.60
2017-08-21T07:47:27.225Z,1017.63
2017-08-21T07:48:27.204Z,1017.55
2017-08-21T07:49:27.185Z,1017.58
2017-08-21T07:50:27.163Z,1017.56
2017-08-21T07:51:27.142Z,1017.56
2017-08-21T07:52:27.125Z,1017.54
2017-08-21T07:53:27.103Z,1017.56
2017-08-21T07:54:27.081Z,1017.65
2017-08-21T07:55:27.063Z,1017.54
2017-08-21T07:56:27.039Z,1017.51
2017-08-21T07:57:27.020Z,1017.50
2017-08-21T07:58:26.997Z,1017.51
2017-08-21T07:59:26.975Z,1017.49
2017-08-21T08:00:26.958Z,1017.40
2017-08-21T08:01:26.934Z,1017.48
2017-08-21T08:02:26.917Z,1017.47
2017-08-21T08:03:26.890Z,1017.45
2017-08-21T08:04:26.869Z,1017.37
2017-08-21T08:05:26.848Z,1017.42
2017-08-21T08:06:26.828Z,1017.46
2017-08-21T08:07:26.805Z,1017.44
2017-08-21T08:08:26.787Z,1017.43
2017-08-21T08:09:26.764Z,1017.46
2017-08-21T08:10:26.747Z,1017.48
2017-08-21T08:11:26.721Z,1017.48
2017-08-21T08:12:26.702Z,1017.49
2017-08-21T08:13:26.684Z,1017.53
2017-08-21T08:14:26.662Z,1017.54
2017-08-21T08:15:26.636Z,1017.48
2017-08-21T08:16:26.616Z,1017.50
2017-08-21T08:17:26.597Z,1017.55
2017-08-21T08:18:26.574Z,1017.52
2017-08-21T08:19:26.555Z,1017.52
2017-08-21T08:20:26.536Z,1017.48
2017-08-21T08:21:26.515Z,1017.49
2017-08-21T08:22:26.495Z,1017.52
2017-08-21T08:23:26.470Z,1017.53
2017-08-21T08:24:26.452Z,1017.57
2017-08-21T08:25:26.431Z,1017.50
2017-08-21T08:26:26.406Z,1017.45
2017-08-21T08:27:26.389Z,1017.48
2017-08-21T08:28:26.362Z,1017.46
2017-08-21T08:29:26.342Z,1017.44
2017-08-21T08:30:26.327Z,1017.48
2017-08-21T08:31:26.304Z,1017.47
2017-08-21T08:32:26.278Z,1017.43
2017-08-21T08:33:26.265Z,1017.48
2017-08-21T08:34:26.237Z,1017.50
2017-08-21T08:35:26.222Z,1017.45
2017-08-21T08:36:26.199Z,1017.45
2017-08-21T08:37:26.177Z,1017.48
2017-08-21T08:38:26.158Z,1017.48
2017-08-21T08:39:26.133Z,1017.46
2017-08-21T08:40:26.111Z,1017.48
2017-08-21T08:41:26.092Z,1017.44
2017-08-21T08:42:26.078Z,1017.46
2017-08-21T08:43:26.048Z,1017.47
2017-08-21T08:44:26.029Z,1017.43
2017-08-21T08:45:26.012Z,1017.47
2017-08-21T08:46:25.986Z,1017.47
2017-08-21T08:47:25.967Z,1017.46
2017-08-21T08:48:25.943Z,1017.46
2017-08-21T08:49:25.922Z,1017.44
2017-08-21T08:50:25.903Z,1017.42
2017-08-21T08:51:25.883Z,1017.42
2017-08-21T08:52:25.863Z,1017.47
2017-08-21T08:53:25.839Z,1017.41
2017-08-21T08:54:25.820Z,1017.47
2017-08-21T08:55:25.800Z,1017.44
2017-08-21T08:56:25.778Z,1017.46
2017-08-21T08:57:25.755Z,1017.49
2017-08-21T08:58:25.737Z,1017.49
2017-08-21T08:59:25.714Z,1017.47
2017-08-21T09:00:25.692Z,1017.46
2017-08-21T09:01:25.675Z,1017.49
2017-08-21T09:02:25.653Z,1017.48
2017-08-21T09:03:25.628Z,1017.43
2017-08-21T09:04:25.610Z,1017.48
2017-08-21T09:05:25.588Z,1017.48
2017-08-21T09:06:25.567Z,1017.50
2017-08-21T09:07:25.545Z,1017.46
2017-08-21T09:08:25.529Z,1017.45
2017-08-21T09:09:25.504Z,1017.43
2017-08-21T09:10:25.483Z,1017.44
2017-08-21T09:11:25.466Z,1017.46
2017-08-21T09:12:25.440Z,1017.47
2017-08-21T09:13:25.420Z,1017.49
2017-08-21T09:14:25.400Z,1017.49
2017-08-21T09:15:25.377Z,1017.41
2017-08-21T09:16:25.358Z,1017.46
2017-08-21T09:17:25.338Z,1017.47
2017-08-21T09:18:25.318Z,1017.45
2017-08-21T09:19:25.295Z,1017.47
2017-08-21T09:20:25.273Z,1017.39
2017-08-21T09:21:25.254Z,1017.38
2017-08-21T09:22:25.233Z,1017.36
2017-08-21T09:23:25.212Z,1017.39
2017-08-21T09:24:25.192Z,1017.39
2017-08-21T09:25:25.168Z,1017.38
2017-08-21T09:26:25.150Z,1017.40
2017-08-21T09:27:25.130Z,1017.40
2017-08-21T09:28:25.106Z,1017.42
2017-08-21T09:29:25.085Z,1017.46
2017-08-21T09:30:25.066Z,1017.43
2017-08-21T09:31:25.046Z,1017.39
2017-08-21T09:32:25.021Z,1017.44
2017-08-21T09:33:25.003Z,1017.44
2017-08-21T09:34:24.980Z,1017.36
2017-08-21T09:35:24.963Z,1017.39
2017-08-21T09:36:24.942Z,1017.41
2017-08-21T09:37:24.916Z,1017.40
2017-08-21T09:38:24.900Z,1017.34
2017-08-21T09:39:24.877Z,1017.36
2017-08-21T09:40:24.854Z,1017.37
2017-08-21T09:41:24.834Z,1017.37
2017-08-21T09:42:24.816Z,1017.38
2017-08-21T09:43:24.791Z,1017.37
2017-08-21T09:44:24.773Z,1017.39
2017-08-21T09:45:24.751Z,1017.36
2017-08-21T09:46:24.733Z,1017.37
2017-08-21T09:47:24.709Z,1017.32
2017-08-21T09:48:24.686Z,1017.37
2017-08-21T09:49:24.666Z,1017.37
2017-08-21T09:50:24.648Z,1017.38
2017-08-21T09:51:24.628Z,1017.36
2017-08-21T09:52:24.602Z,1017.37
2017-08-21T09:53:24.583Z,1017.35
2017-08-21T09:54:24.564Z,1017.32
2017-08-21T09:55:24.544Z,1017.23
2017-08-21T09:56:24.521Z,1017.31
2017-08-21T09:57:24.502Z,1017.26
2017-08-21T09:58:24.489Z,1017.29
2017-08-21T09:59:24.460Z,1017.27
2017-08-21T10:00:24.443Z,1017.23
2017-08-21T10:01:24.420Z,1017.24
2017-08-21T10:02:24.400Z,1017.26
2017-08-21T10:03:24.376Z,1017.21
2017-08-21T10:04:24.352Z,1017.20
2017-08-21T10:05:24.331Z,1017.21
2017-08-21T10:06:24.315Z,1017.21
2017-08-21T10:07:24.289Z,1017.25
2017-08-21T10:08:24.273Z,1017.21
2017-08-21T10:09:24.251Z,1017.22
2017-08-21T10:10:24.228Z,1017.22
2017-08-21T10:11:24.208Z,1017.25
2017-08-21T10:12:24.184Z,1017.21
2017-08-21T10:13:24.164Z,1017.21
2017-08-21T10:14:24.145Z,1017.19
2017-08-21T10:15:24.123Z,1017.17
2017-08-21T10:16:24.109Z,1017.23
2017-08-21T10:17:24.087Z,1017.17
2017-08-21T10:18:24.063Z,1017.21
2017-08-21T10:19:24.038Z,1017.19
2017-08-21T10:20:24.018Z,1017.20
2017-08-21T10:21:24.002Z,1017.23
2017-08-21T10:22:23.977Z,1017.20
2017-08-21T10:23:23.960Z,1017.20
2017-08-21T10:24:23.936Z,1017.22
2017-08-21T10:25:23.915Z,1017.18
2017-08-21T10:26:23.895Z,1017.28
2017-08-21T10:27:23.877Z,1017.21
2017-08-21T10:28:23.854Z,1017.22
2017-08-21T10:29:23.832Z,1017.21
2017-08-21T10:30:23.813Z,1017.19
2017-08-21T10:31:23.793Z,1017.15
2017-08-21T10:32:23.770Z,1017.21
2017-08-21T10:33:23.752Z,1017.23
2017-08-21T10:34:23.731Z,1017.20
2017-08-21T10:35:23.710Z,1017.16
2017-08-21T10:36:23.687Z,1017.15
2017-08-21T10:37:23.664Z,1017.14
2017-08-21T10:38:23.648Z,1017.08
2017-08-21T10:39:23.622Z,1017.16
2017-08-21T10:40:23.606Z,1017.13
2017-08-21T10:41:23.585Z,1017.11
2017-08-21T10:42:23.564Z,1017.06
2017-08-21T10:43:23.540Z,1016.99
2017-08-21T10:44:23.518Z,1017.09
2017-08-21T10:45:23.502Z,1017.07
2017-08-21T10:46:23.479Z,1017.07
2017-08-21T10:47:23.460Z,1017.09
2017-08-21T10:48:23.439Z,1017.04
2017-08-21T10:49:23.420Z,1017.05
2017-08-21T10:50:23.394Z,1017.02
2017-08-21T10:51:23.374Z,1017.01
2017-08-21T10:52:23.352Z,1017.05
2017-08-21T10:53:23.333Z,1017.05
2017-08-21T10:54:23.311Z,1017.00
2017-08-21T10:55:23.291Z,1017.03
2017-08-21T10:56:23.270Z,1017.00
2017-08-21T10:57:23.248Z,1017.04
2017-08-21T10:58:23.229Z,1017.03
2017-08-21T10:59:23.207Z,1016.99
2017-08-21T11:00:23.191Z,1017.04
2017-08-21T11:01:23.164Z,1016.98
2017-08-21T11:02:23.148Z,1016.97
2017-08-21T11:03:23.126Z,1016.97
2017-08-21T11:04:23.102Z,1016.94
2017-08-21T11:05:23.086Z,1016.93
2017-08-21T11:06:23.065Z,1016.99
2017-08-21T11:07:23.041Z,1016.98
2017-08-21T11:08:23.022Z,1016.97
2017-08-21T11:09:23.003Z,1017.04
2017-08-21T11:10:22.981Z,1017.02
2017-08-21T11:11:22.961Z,1017.01
2017-08-21T11:12:22.938Z,1016.99
2017-08-21T11:13:22.917Z,1016.97
2017-08-21T11:14:22.893Z,1017.10
2017-08-21T11:15:22.871Z,1017.08
2017-08-21T11:16:22.853Z,1017.04
2017-08-21T11:17:22.831Z,1017.01
2017-08-21T11:18:22.812Z,1017.05
2017-08-21T11:19:22.789Z,1016.95
2017-08-21T11:20:22.773Z,1017.02
2017-08-21T11:21:22.748Z,1016.99
2017-08-21T11:22:22.732Z,1016.94
2017-08-21T11:23:22.705Z,1016.94
2017-08-21T11:24:22.686Z,1016.90
2017-08-21T11:25:22.668Z,1016.94
2017-08-21T11:26:22.645Z,1016.89
2017-08-21T11:27:22.626Z,1016.92
2017-08-21T11:28:22.602Z,1016.84
2017-08-21T11:29:22.585Z,1016.86
2017-08-21T11:30:22.571Z,1016.75
2017-08-21T11:31:22.543Z,1016.73
2017-08-21T11:32:22.524Z,1016.67
2017-08-21T11:33:22.502Z,1016.66
2017-08-21T11:34:22.482Z,1016.64
2017-08-21T11:35:22.457Z,1016.65
2017-08-21T11:36:22.436Z,1016.63
2017-08-21T11:37:22.417Z,1016.66
2017-08-21T11:38:22.394Z,1016.74
2017-08-21T11:39:22.372Z,1016.70
2017-08-21T11:40:22.354Z,1016.66
2017-08-21T11:41:22.333Z,1016.61
2017-08-21T11:42:22.313Z,1016.64
2017-08-21T11:43:22.290Z,1016.59
2017-08-21T11:44:22.269Z,1016.57
2017-08-21T11:45:22.250Z,1016.64
2017-08-21T11:46:22.227Z,1016.58
2017-08-21T11:47:22.208Z,1016.60
2017-08-21T11:48:22.189Z,1016.58
2017-08-21T11:49:22.167Z,1016.58
2017-08-21T11:50:22.147Z,1016.62
2017-08-21T11:51:22.122Z,1016.58
2017-08-21T11:52:22.101Z,1016.57
2017-08-21T11:53:22.081Z,1016.59
2017-08-21T11:54:22.065Z,1016.60
2017-08-21T11:55:22.038Z,1016.62
2017-08-21T11:56:22.019Z,1016.55
2017-08-21T11:57:22.000Z,1016.54
2017-08-21T11:58:21.977Z,1016.54
2017-08-21T11:59:21.960Z,1016.56
2017-08-21T12:00:21.940Z,1016.58
2017-08-21T12:01:21.919Z,1016.55
2017-08-21T12:02:21.896Z,1016.52
2017-08-21T12:03:21.872Z,1016.51
2017-08-21T12:04:21.851Z,1016.47
2017-08-21T12:05:21.835Z,1016.50